sensor_id;sensor_type;location;lat;lon;timestamp;P1;durP1;ratioP1;P2;durP2;ratioP2
1320;SDS011;653;51.480;11.992;2023-04-03T00:01:35;3.23;;;1.30;;
1320;SDS011;653;51.480;11.992;2023-04-03T00:04:05;5.93;;;2.70;;
1320;SDS011;653;51.480;11.992;2023-04-03T00:06:31;7.17;;;2.17;;
1320;SDS011;653;51.480;11.992;2023-04-03T00:08:57;3.70;;;2.03;;
1320;SDS011;653;51.480;11.992;2023-04-03T00:11:23;7.10;;;2.03;;
1320;SDS011;653;51.480;11.992;2023-04-03T00:13:49;7.17;;;2.63;;
1320;SDS011;653;51.480;11.992;2023-04-03T00:16:15;3.53;;;2.30;;
1320;SDS011;653;51.480;11.992;2023-04-03T00:18:42;5.23;;;1.87;;
1320;SDS011;653;51.480;11.992;2023-04-03T00:21:09;11.07;;;2.50;;
1320;SDS011;653;51.480;11.992;2023-04-03T00:23:37;5.43;;;2.40;;
1320;SDS011;653;51.480;11.992;2023-04-03T00:26:03;4.30;;;2.20;;
1320;SDS011;653;51.480;11.992;2023-04-03T00:28:29;8.53;;;3.53;;
1320;SDS011;653;51.480;11.992;2023-04-03T00:30:56;6.13;;;2.80;;
1320;SDS011;653;51.480;11.992;2023-04-03T00:33:22;6.10;;;3.30;;
1320;SDS011;653;51.480;11.992;2023-04-03T00:35:50;7.30;;;2.50;;
1320;SDS011;653;51.480;11.992;2023-04-03T00:38:18;11.67;;;2.40;;
1320;SDS011;653;51.480;11.992;2023-04-03T00:40:46;7.00;;;2.50;;
1320;SDS011;653;51.480;11.992;2023-04-03T00:43:24;4.90;;;2.33;;
1320;SDS011;653;51.480;11.992;2023-04-03T00:45:54;4.67;;;2.27;;
1320;SDS011;653;51.480;11.992;2023-04-03T00:48:32;12.97;;;2.77;;
1320;SDS011;653;51.480;11.992;2023-04-03T00:51:02;10.03;;;2.60;;
1320;SDS011;653;51.480;11.992;2023-04-03T00:53:37;7.10;;;2.20;;
1320;SDS011;653;51.480;11.992;2023-04-03T00:56:06;4.53;;;2.60;;
1320;SDS011;653;51.480;11.992;2023-04-03T00:59:18;4.40;;;1.80;;
1320;SDS011;653;51.480;11.992;2023-04-03T01:01:28;6.30;;;2.50;;
1320;SDS011;653;51.480;11.992;2023-04-03T01:03:58;4.20;;;2.17;;
1320;SDS011;653;51.480;11.992;2023-04-03T01:06:26;5.03;;;1.97;;
1320;SDS011;653;51.480;11.992;2023-04-03T01:08:58;4.63;;;1.60;;
1320;SDS011;653;51.480;11.992;2023-04-03T01:11:26;4.77;;;2.20;;
1320;SDS011;653;51.480;11.992;2023-04-03T01:13:53;5.93;;;2.50;;
1320;SDS011;653;51.480;11.992;2023-04-03T01:16:20;3.73;;;1.90;;
1320;SDS011;653;51.480;11.992;2023-04-03T01:18:46;8.70;;;1.70;;
1320;SDS011;653;51.480;11.992;2023-04-03T01:24:15;3.30;;;1.73;;
1320;SDS011;653;51.480;11.992;2023-04-03T01:26:52;4.63;;;1.90;;
1320;SDS011;653;51.480;11.992;2023-04-03T01:29:18;4.60;;;2.20;;
1320;SDS011;653;51.480;11.992;2023-04-03T01:31:45;7.90;;;1.87;;
1320;SDS011;653;51.480;11.992;2023-04-03T01:34:18;4.17;;;1.97;;
1320;SDS011;653;51.480;11.992;2023-04-03T01:36:44;6.63;;;2.23;;
1320;SDS011;653;51.480;11.992;2023-04-03T01:39:10;4.43;;;2.50;;
1320;SDS011;653;51.480;11.992;2023-04-03T01:41:36;3.90;;;2.17;;
1320;SDS011;653;51.480;11.992;2023-04-03T01:44:02;5.67;;;2.23;;
1320;SDS011;653;51.480;11.992;2023-04-03T01:46:29;4.03;;;1.93;;
1320;SDS011;653;51.480;11.992;2023-04-03T01:48:55;8.23;;;2.63;;
1320;SDS011;653;51.480;11.992;2023-04-03T01:51:20;4.40;;;2.20;;
1320;SDS011;653;51.480;11.992;2023-04-03T01:53:46;6.23;;;2.30;;
1320;SDS011;653;51.480;11.992;2023-04-03T01:56:12;10.10;;;3.03;;
1320;SDS011;653;51.480;11.992;2023-04-03T01:58:37;4.80;;;2.30;;
1320;SDS011;653;51.480;11.992;2023-04-03T02:01:03;6.70;;;2.33;;
1320;SDS011;653;51.480;11.992;2023-04-03T02:03:29;7.80;;;2.90;;
1320;SDS011;653;51.480;11.992;2023-04-03T02:05:55;5.23;;;1.70;;
1320;SDS011;653;51.480;11.992;2023-04-03T02:08:21;5.37;;;2.03;;
1320;SDS011;653;51.480;11.992;2023-04-03T02:10:47;7.40;;;1.90;;
1320;SDS011;653;51.480;11.992;2023-04-03T02:13:14;4.20;;;2.00;;
1320;SDS011;653;51.480;11.992;2023-04-03T02:15:40;5.63;;;2.13;;
1320;SDS011;653;51.480;11.992;2023-04-03T02:18:05;4.23;;;2.13;;
1320;SDS011;653;51.480;11.992;2023-04-03T02:20:32;3.57;;;1.63;;
1320;SDS011;653;51.480;11.992;2023-04-03T02:22:58;5.40;;;2.00;;
1320;SDS011;653;51.480;11.992;2023-04-03T02:25:24;3.77;;;1.93;;
1320;SDS011;653;51.480;11.992;2023-04-03T02:27:50;5.30;;;2.93;;
1320;SDS011;653;51.480;11.992;2023-04-03T02:30:15;4.60;;;2.50;;
1320;SDS011;653;51.480;11.992;2023-04-03T02:32:41;5.27;;;1.97;;
1320;SDS011;653;51.480;11.992;2023-04-03T02:35:08;4.30;;;2.10;;
1320;SDS011;653;51.480;11.992;2023-04-03T02:37:40;4.07;;;2.70;;
1320;SDS011;653;51.480;11.992;2023-04-03T02:40:06;5.03;;;2.00;;
1320;SDS011;653;51.480;11.992;2023-04-03T02:42:32;8.40;;;2.13;;
1320;SDS011;653;51.480;11.992;2023-04-03T02:44:57;3.93;;;2.37;;
1320;SDS011;653;51.480;11.992;2023-04-03T02:47:25;5.03;;;2.10;;
1320;SDS011;653;51.480;11.992;2023-04-03T02:49:51;5.50;;;1.83;;
1320;SDS011;653;51.480;11.992;2023-04-03T02:52:18;10.87;;;2.83;;
1320;SDS011;653;51.480;11.992;2023-04-03T02:54:43;5.37;;;1.97;;
1320;SDS011;653;51.480;11.992;2023-04-03T02:57:10;3.63;;;1.60;;
1320;SDS011;653;51.480;11.992;2023-04-03T02:59:36;7.70;;;2.67;;
1320;SDS011;653;51.480;11.992;2023-04-03T03:02:05;5.33;;;2.37;;
1320;SDS011;653;51.480;11.992;2023-04-03T03:04:32;10.20;;;3.10;;
1320;SDS011;653;51.480;11.992;2023-04-03T03:06:57;3.10;;;2.13;;
1320;SDS011;653;51.480;11.992;2023-04-03T03:09:23;7.03;;;2.50;;
1320;SDS011;653;51.480;11.992;2023-04-03T03:11:48;7.07;;;3.27;;
1320;SDS011;653;51.480;11.992;2023-04-03T03:14:14;6.87;;;2.13;;
1320;SDS011;653;51.480;11.992;2023-04-03T03:16:39;4.87;;;1.97;;
1320;SDS011;653;51.480;11.992;2023-04-03T03:19:05;4.20;;;2.03;;
1320;SDS011;653;51.480;11.992;2023-04-03T03:21:32;5.70;;;1.53;;
1320;SDS011;653;51.480;11.992;2023-04-03T03:23:57;7.10;;;2.00;;
1320;SDS011;653;51.480;11.992;2023-04-03T03:26:23;4.67;;;1.70;;
1320;SDS011;653;51.480;11.992;2023-04-03T03:28:48;6.80;;;1.70;;
1320;SDS011;653;51.480;11.992;2023-04-03T03:31:14;4.40;;;1.80;;
1320;SDS011;653;51.480;11.992;2023-04-03T03:33:42;3.90;;;1.67;;
1320;SDS011;653;51.480;11.992;2023-04-03T03:36:07;11.13;;;2.23;;
1320;SDS011;653;51.480;11.992;2023-04-03T03:38:33;4.10;;;1.97;;
1320;SDS011;653;51.480;11.992;2023-04-03T03:40:58;8.60;;;2.37;;
1320;SDS011;653;51.480;11.992;2023-04-03T03:43:24;9.20;;;3.23;;
1320;SDS011;653;51.480;11.992;2023-04-03T03:45:53;8.33;;;2.30;;
1320;SDS011;653;51.480;11.992;2023-04-03T03:48:19;6.43;;;2.00;;
1320;SDS011;653;51.480;11.992;2023-04-03T03:50:46;6.90;;;2.07;;
1320;SDS011;653;51.480;11.992;2023-04-03T03:53:12;4.30;;;2.10;;
1320;SDS011;653;51.480;11.992;2023-04-03T03:55:38;4.73;;;2.07;;
1320;SDS011;653;51.480;11.992;2023-04-03T03:58:03;6.70;;;1.50;;
1320;SDS011;653;51.480;11.992;2023-04-03T04:00:29;6.00;;;2.67;;
1320;SDS011;653;51.480;11.992;2023-04-03T04:02:55;5.53;;;1.70;;
1320;SDS011;653;51.480;11.992;2023-04-03T04:05:21;5.23;;;1.80;;
1320;SDS011;653;51.480;11.992;2023-04-03T04:07:46;4.43;;;1.90;;
1320;SDS011;653;51.480;11.992;2023-04-03T04:10:12;6.90;;;2.40;;
1320;SDS011;653;51.480;11.992;2023-04-03T04:12:38;8.47;;;2.20;;
1320;SDS011;653;51.480;11.992;2023-04-03T04:15:04;5.53;;;2.83;;
1320;SDS011;653;51.480;11.992;2023-04-03T04:17:30;7.97;;;2.87;;
1320;SDS011;653;51.480;11.992;2023-04-03T04:19:55;5.67;;;2.40;;
1320;SDS011;653;51.480;11.992;2023-04-03T04:22:21;6.80;;;3.10;;
1320;SDS011;653;51.480;11.992;2023-04-03T04:24:46;5.47;;;3.03;;
1320;SDS011;653;51.480;11.992;2023-04-03T04:27:12;4.40;;;2.27;;
1320;SDS011;653;51.480;11.992;2023-04-03T04:29:37;5.73;;;2.80;;
1320;SDS011;653;51.480;11.992;2023-04-03T04:32:03;4.93;;;2.03;;
1320;SDS011;653;51.480;11.992;2023-04-03T04:34:28;6.40;;;2.93;;
1320;SDS011;653;51.480;11.992;2023-04-03T04:36:54;4.57;;;2.40;;
1320;SDS011;653;51.480;11.992;2023-04-03T04:39:20;7.90;;;3.43;;
1320;SDS011;653;51.480;11.992;2023-04-03T04:41:45;8.27;;;3.83;;
1320;SDS011;653;51.480;11.992;2023-04-03T04:44:10;5.43;;;2.27;;
1320;SDS011;653;51.480;11.992;2023-04-03T04:46:36;6.77;;;2.40;;
1320;SDS011;653;51.480;11.992;2023-04-03T04:49:01;3.63;;;1.60;;
1320;SDS011;653;51.480;11.992;2023-04-03T04:51:27;4.33;;;1.97;;
1320;SDS011;653;51.480;11.992;2023-04-03T04:53:52;4.33;;;2.20;;
1320;SDS011;653;51.480;11.992;2023-04-03T04:56:17;6.50;;;2.17;;
1320;SDS011;653;51.480;11.992;2023-04-03T04:58:43;6.77;;;2.70;;
1320;SDS011;653;51.480;11.992;2023-04-03T05:01:09;7.63;;;2.47;;
1320;SDS011;653;51.480;11.992;2023-04-03T05:03:35;7.03;;;2.67;;
1320;SDS011;653;51.480;11.992;2023-04-03T05:06:01;4.60;;;2.10;;
1320;SDS011;653;51.480;11.992;2023-04-03T05:08:26;4.43;;;2.17;;
1320;SDS011;653;51.480;11.992;2023-04-03T05:10:52;10.20;;;2.53;;
1320;SDS011;653;51.480;11.992;2023-04-03T05:13:18;8.00;;;3.73;;
1320;SDS011;653;51.480;11.992;2023-04-03T05:15:44;6.23;;;3.13;;
1320;SDS011;653;51.480;11.992;2023-04-03T05:18:10;6.80;;;2.20;;
1320;SDS011;653;51.480;11.992;2023-04-03T05:20:35;6.27;;;2.43;;
1320;SDS011;653;51.480;11.992;2023-04-03T05:23:02;5.53;;;2.27;;
1320;SDS011;653;51.480;11.992;2023-04-03T05:25:27;5.20;;;1.90;;
1320;SDS011;653;51.480;11.992;2023-04-03T05:27:53;3.10;;;1.83;;
1320;SDS011;653;51.480;11.992;2023-04-03T05:30:19;6.53;;;2.30;;
1320;SDS011;653;51.480;11.992;2023-04-03T05:32:44;7.90;;;2.10;;
1320;SDS011;653;51.480;11.992;2023-04-03T05:35:10;8.07;;;2.30;;
1320;SDS011;653;51.480;11.992;2023-04-03T05:37:35;5.93;;;2.40;;
1320;SDS011;653;51.480;11.992;2023-04-03T05:40:02;5.77;;;2.47;;
1320;SDS011;653;51.480;11.992;2023-04-03T05:42:28;5.33;;;2.50;;
1320;SDS011;653;51.480;11.992;2023-04-03T05:44:54;5.50;;;2.27;;
1320;SDS011;653;51.480;11.992;2023-04-03T05:47:20;8.43;;;2.80;;
1320;SDS011;653;51.480;11.992;2023-04-03T05:49:45;4.10;;;2.20;;
1320;SDS011;653;51.480;11.992;2023-04-03T05:54:47;4.87;;;2.17;;
1320;SDS011;653;51.480;11.992;2023-04-03T05:57:13;5.97;;;2.47;;
1320;SDS011;653;51.480;11.992;2023-04-03T05:59:41;3.90;;;1.93;;
1320;SDS011;653;51.480;11.992;2023-04-03T06:02:07;8.27;;;3.60;;
1320;SDS011;653;51.480;11.992;2023-04-03T06:04:34;8.93;;;2.50;;
1320;SDS011;653;51.480;11.992;2023-04-03T06:06:59;9.13;;;3.47;;
1320;SDS011;653;51.480;11.992;2023-04-03T06:09:26;5.23;;;2.30;;
1320;SDS011;653;51.480;11.992;2023-04-03T06:11:52;5.77;;;2.43;;
1320;SDS011;653;51.480;11.992;2023-04-03T06:14:18;4.03;;;2.23;;
1320;SDS011;653;51.480;11.992;2023-04-03T06:16:44;5.10;;;2.73;;
1320;SDS011;653;51.480;11.992;2023-04-03T06:19:11;7.30;;;2.40;;
1320;SDS011;653;51.480;11.992;2023-04-03T06:21:37;9.07;;;3.23;;
1320;SDS011;653;51.480;11.992;2023-04-03T06:24:06;6.13;;;2.60;;
1320;SDS011;653;51.480;11.992;2023-04-03T06:26:33;6.07;;;2.10;;
1320;SDS011;653;51.480;11.992;2023-04-03T06:28:59;5.40;;;2.70;;
1320;SDS011;653;51.480;11.992;2023-04-03T06:31:24;5.40;;;2.27;;
1320;SDS011;653;51.480;11.992;2023-04-03T06:33:50;4.93;;;1.93;;
1320;SDS011;653;51.480;11.992;2023-04-03T06:36:15;7.10;;;2.80;;
1320;SDS011;653;51.480;11.992;2023-04-03T06:38:44;8.63;;;2.40;;
1320;SDS011;653;51.480;11.992;2023-04-03T06:41:10;5.57;;;2.17;;
1320;SDS011;653;51.480;11.992;2023-04-03T06:43:35;7.20;;;1.93;;
1320;SDS011;653;51.480;11.992;2023-04-03T06:46:01;5.33;;;2.93;;
1320;SDS011;653;51.480;11.992;2023-04-03T06:48:29;4.37;;;2.20;;
1320;SDS011;653;51.480;11.992;2023-04-03T06:50:54;7.20;;;2.63;;
1320;SDS011;653;51.480;11.992;2023-04-03T06:53:20;3.67;;;1.93;;
1320;SDS011;653;51.480;11.992;2023-04-03T06:55:46;4.90;;;1.93;;
1320;SDS011;653;51.480;11.992;2023-04-03T06:58:12;5.37;;;2.00;;
1320;SDS011;653;51.480;11.992;2023-04-03T07:00:38;5.80;;;1.93;;
1320;SDS011;653;51.480;11.992;2023-04-03T07:03:04;2.90;;;1.43;;
1320;SDS011;653;51.480;11.992;2023-04-03T07:05:29;5.50;;;2.50;;
1320;SDS011;653;51.480;11.992;2023-04-03T07:07:55;3.10;;;2.10;;
1320;SDS011;653;51.480;11.992;2023-04-03T07:10:21;3.27;;;1.43;;
1320;SDS011;653;51.480;11.992;2023-04-03T07:12:46;5.93;;;2.20;;
1320;SDS011;653;51.480;11.992;2023-04-03T07:15:12;4.60;;;2.17;;
1320;SDS011;653;51.480;11.992;2023-04-03T07:17:40;4.53;;;2.20;;
1320;SDS011;653;51.480;11.992;2023-04-03T07:20:06;7.00;;;2.43;;
1320;SDS011;653;51.480;11.992;2023-04-03T07:22:33;9.50;;;2.10;;
1320;SDS011;653;51.480;11.992;2023-04-03T07:24:58;9.13;;;2.47;;
1320;SDS011;653;51.480;11.992;2023-04-03T07:27:24;4.37;;;2.23;;
1320;SDS011;653;51.480;11.992;2023-04-03T07:29:51;5.33;;;2.93;;
1320;SDS011;653;51.480;11.992;2023-04-03T07:32:16;4.77;;;1.90;;
1320;SDS011;653;51.480;11.992;2023-04-03T07:34:42;5.17;;;2.53;;
1320;SDS011;653;51.480;11.992;2023-04-03T07:37:08;8.43;;;2.03;;
1320;SDS011;653;51.480;11.992;2023-04-03T07:39:34;4.00;;;2.10;;
1320;SDS011;653;51.480;11.992;2023-04-03T07:42:00;6.23;;;2.83;;
1320;SDS011;653;51.480;11.992;2023-04-03T07:44:25;4.60;;;2.03;;
1320;SDS011;653;51.480;11.992;2023-04-03T07:46:51;6.67;;;2.07;;
1320;SDS011;653;51.480;11.992;2023-04-03T07:49:17;4.57;;;2.90;;
1320;SDS011;653;51.480;11.992;2023-04-03T07:51:48;5.47;;;2.47;;
1320;SDS011;653;51.480;11.992;2023-04-03T07:54:14;5.00;;;1.80;;
1320;SDS011;653;51.480;11.992;2023-04-03T07:56:40;4.10;;;2.20;;
1320;SDS011;653;51.480;11.992;2023-04-03T07:59:05;5.20;;;2.27;;
1320;SDS011;653;51.480;11.992;2023-04-03T08:01:31;5.63;;;2.30;;
1320;SDS011;653;51.480;11.992;2023-04-03T08:04:00;4.73;;;2.83;;
1320;SDS011;653;51.480;11.992;2023-04-03T08:06:26;3.50;;;2.30;;
1320;SDS011;653;51.480;11.992;2023-04-03T08:08:53;7.10;;;3.20;;
1320;SDS011;653;51.480;11.992;2023-04-03T08:11:19;3.60;;;2.10;;
1320;SDS011;653;51.480;11.992;2023-04-03T08:13:47;3.97;;;2.63;;
1320;SDS011;653;51.480;11.992;2023-04-03T08:16:14;4.87;;;3.00;;
1320;SDS011;653;51.480;11.992;2023-04-03T08:18:43;7.07;;;2.60;;
1320;SDS011;653;51.480;11.992;2023-04-03T08:21:10;10.13;;;3.23;;
1320;SDS011;653;51.480;11.992;2023-04-03T08:23:38;7.43;;;2.83;;
1320;SDS011;653;51.480;11.992;2023-04-03T08:26:09;4.20;;;2.53;;
1320;SDS011;653;51.480;11.992;2023-04-03T08:28:38;4.77;;;2.60;;
1320;SDS011;653;51.480;11.992;2023-04-03T08:31:05;4.67;;;2.50;;
1320;SDS011;653;51.480;11.992;2023-04-03T08:33:33;4.40;;;2.70;;
1320;SDS011;653;51.480;11.992;2023-04-03T08:36:03;6.60;;;2.70;;
1320;SDS011;653;51.480;11.992;2023-04-03T08:38:30;5.63;;;2.80;;
1320;SDS011;653;51.480;11.992;2023-04-03T08:41:02;4.80;;;2.47;;
1320;SDS011;653;51.480;11.992;2023-04-03T08:43:36;3.80;;;2.37;;
1320;SDS011;653;51.480;11.992;2023-04-03T08:46:25;4.80;;;2.10;;
1320;SDS011;653;51.480;11.992;2023-04-03T08:48:59;4.37;;;3.17;;
1320;SDS011;653;51.480;11.992;2023-04-03T08:51:26;6.20;;;2.47;;
1320;SDS011;653;51.480;11.992;2023-04-03T08:54:02;4.90;;;2.00;;
1320;SDS011;653;51.480;11.992;2023-04-03T08:56:30;5.50;;;2.07;;
1320;SDS011;653;51.480;11.992;2023-04-03T08:58:58;4.50;;;2.30;;
1320;SDS011;653;51.480;11.992;2023-04-03T09:01:35;6.97;;;2.10;;
1320;SDS011;653;51.480;11.992;2023-04-03T09:04:09;6.00;;;2.30;;
1320;SDS011;653;51.480;11.992;2023-04-03T09:07:08;4.50;;;2.03;;
1320;SDS011;653;51.480;11.992;2023-04-03T09:09:40;5.90;;;2.47;;
1320;SDS011;653;51.480;11.992;2023-04-03T09:15:18;5.03;;;2.50;;
1320;SDS011;653;51.480;11.992;2023-04-03T09:17:57;3.73;;;2.37;;
1320;SDS011;653;51.480;11.992;2023-04-03T09:26:56;4.20;;;2.00;;
1320;SDS011;653;51.480;11.992;2023-04-03T09:29:24;4.63;;;2.33;;
1320;SDS011;653;51.480;11.992;2023-04-03T09:32:00;4.27;;;2.47;;
1320;SDS011;653;51.480;11.992;2023-04-03T09:34:32;3.47;;;2.40;;
1320;SDS011;653;51.480;11.992;2023-04-03T09:37:03;5.10;;;2.27;;
1320;SDS011;653;51.480;11.992;2023-04-03T09:39:33;2.53;;;2.30;;
1320;SDS011;653;51.480;11.992;2023-04-03T09:42:20;4.37;;;2.30;;
1320;SDS011;653;51.480;11.992;2023-04-03T09:45:02;2.47;;;2.07;;
1320;SDS011;653;51.480;11.992;2023-04-03T09:47:30;3.43;;;2.43;;
1320;SDS011;653;51.480;11.992;2023-04-03T09:52:41;6.90;;;2.60;;
1320;SDS011;653;51.480;11.992;2023-04-03T09:55:21;3.70;;;2.50;;
1320;SDS011;653;51.480;11.992;2023-04-03T09:57:54;4.03;;;2.07;;
1320;SDS011;653;51.480;11.992;2023-04-03T10:02:58;3.77;;;2.10;;
1320;SDS011;653;51.480;11.992;2023-04-03T10:05:25;4.70;;;2.70;;
1320;SDS011;653;51.480;11.992;2023-04-03T10:08:39;2.90;;;2.37;;
1320;SDS011;653;51.480;11.992;2023-04-03T10:10:48;5.70;;;2.50;;
1320;SDS011;653;51.480;11.992;2023-04-03T10:13:15;4.10;;;2.50;;
1320;SDS011;653;51.480;11.992;2023-04-03T10:15:44;3.03;;;2.60;;
1320;SDS011;653;51.480;11.992;2023-04-03T10:18:17;8.03;;;2.97;;
1320;SDS011;653;51.480;11.992;2023-04-03T10:20:55;7.13;;;3.33;;
1320;SDS011;653;51.480;11.992;2023-04-03T10:23:27;7.77;;;2.63;;
1320;SDS011;653;51.480;11.992;2023-04-03T10:26:09;7.77;;;2.80;;
1320;SDS011;653;51.480;11.992;2023-04-03T10:35:37;5.07;;;3.10;;
1320;SDS011;653;51.480;11.992;2023-04-03T10:43:50;6.87;;;3.90;;
1320;SDS011;653;51.480;11.992;2023-04-03T10:46:47;14.07;;;7.63;;
1320;SDS011;653;51.480;11.992;2023-04-03T10:49:22;16.43;;;6.53;;
1320;SDS011;653;51.480;11.992;2023-04-03T10:57:49;6.57;;;3.37;;
1320;SDS011;653;51.480;11.992;2023-04-03T11:00:18;8.07;;;4.10;;
1320;SDS011;653;51.480;11.992;2023-04-03T11:03:00;4.93;;;3.67;;
1320;SDS011;653;51.480;11.992;2023-04-03T11:05:48;4.50;;;3.20;;
1320;SDS011;653;51.480;11.992;2023-04-03T11:11:26;8.83;;;4.67;;
1320;SDS011;653;51.480;11.992;2023-04-03T11:14:13;6.27;;;4.10;;
1320;SDS011;653;51.480;11.992;2023-04-03T11:16:47;7.87;;;4.67;;
1320;SDS011;653;51.480;11.992;2023-04-03T11:19:18;7.33;;;4.60;;
1320;SDS011;653;51.480;11.992;2023-04-03T11:24:36;6.43;;;3.13;;
1320;SDS011;653;51.480;11.992;2023-04-03T11:27:03;8.83;;;4.13;;
1320;SDS011;653;51.480;11.992;2023-04-03T11:29:31;4.57;;;2.73;;
1320;SDS011;653;51.480;11.992;2023-04-03T11:32:20;6.10;;;3.97;;
1320;SDS011;653;51.480;11.992;2023-04-03T11:35:11;6.27;;;4.07;;
1320;SDS011;653;51.480;11.992;2023-04-03T11:37:44;6.43;;;4.07;;
1320;SDS011;653;51.480;11.992;2023-04-03T11:45:57;4.77;;;3.43;;
1320;SDS011;653;51.480;11.992;2023-04-03T11:50:54;9.13;;;3.17;;
1320;SDS011;653;51.480;11.992;2023-04-03T11:53:37;4.50;;;3.17;;
1320;SDS011;653;51.480;11.992;2023-04-03T12:01:46;5.07;;;3.53;;
1320;SDS011;653;51.480;11.992;2023-04-03T12:04:18;6.60;;;3.60;;
1320;SDS011;653;51.480;11.992;2023-04-03T12:11:59;3.00;;;2.70;;
1320;SDS011;653;51.480;11.992;2023-04-03T12:14:26;7.47;;;4.60;;
1320;SDS011;653;51.480;11.992;2023-04-03T12:16:57;4.43;;;3.53;;
1320;SDS011;653;51.480;11.992;2023-04-03T12:19:30;5.17;;;3.20;;
1320;SDS011;653;51.480;11.992;2023-04-03T12:24:31;6.67;;;3.60;;
1320;SDS011;653;51.480;11.992;2023-04-03T12:27:04;4.33;;;3.73;;
1320;SDS011;653;51.480;11.992;2023-04-03T12:30:00;10.10;;;4.60;;
1320;SDS011;653;51.480;11.992;2023-04-03T12:35:40;9.03;;;5.07;;
1320;SDS011;653;51.480;11.992;2023-04-03T12:38:22;8.80;;;3.77;;
1320;SDS011;653;51.480;11.992;2023-04-03T12:47:01;3.63;;;3.20;;
1320;SDS011;653;51.480;11.992;2023-04-03T12:52:44;4.60;;;3.30;;
1320;SDS011;653;51.480;11.992;2023-04-03T12:55:19;4.07;;;3.20;;
1320;SDS011;653;51.480;11.992;2023-04-03T12:57:47;3.50;;;3.07;;
1320;SDS011;653;51.480;11.992;2023-04-03T13:00:28;4.43;;;2.80;;
1320;SDS011;653;51.480;11.992;2023-04-03T13:03:06;7.03;;;2.70;;
1320;SDS011;653;51.480;11.992;2023-04-03T13:05:46;5.57;;;2.93;;
1320;SDS011;653;51.480;11.992;2023-04-03T13:08:13;4.77;;;2.70;;
1320;SDS011;653;51.480;11.992;2023-04-03T13:11:24;4.33;;;3.70;;
1320;SDS011;653;51.480;11.992;2023-04-03T13:13:39;3.47;;;3.00;;
1320;SDS011;653;51.480;11.992;2023-04-03T13:16:09;4.10;;;3.13;;
1320;SDS011;653;51.480;11.992;2023-04-03T13:18:36;3.00;;;2.50;;
1320;SDS011;653;51.480;11.992;2023-04-03T13:21:36;3.77;;;3.30;;
1320;SDS011;653;51.480;11.992;2023-04-03T13:23:58;4.10;;;3.50;;
1320;SDS011;653;51.480;11.992;2023-04-03T13:26:27;3.90;;;3.47;;
1320;SDS011;653;51.480;11.992;2023-04-03T13:29:06;7.37;;;3.80;;
1320;SDS011;653;51.480;11.992;2023-04-03T13:31:38;5.30;;;3.67;;
1320;SDS011;653;51.480;11.992;2023-04-03T13:34:12;3.17;;;2.87;;
1320;SDS011;653;51.480;11.992;2023-04-03T13:36:46;3.60;;;2.97;;
1320;SDS011;653;51.480;11.992;2023-04-03T13:39:25;3.37;;;3.07;;
1320;SDS011;653;51.480;11.992;2023-04-03T13:41:53;4.40;;;3.70;;
1320;SDS011;653;51.480;11.992;2023-04-03T13:44:27;4.63;;;3.53;;
1320;SDS011;653;51.480;11.992;2023-04-03T13:49:45;6.80;;;3.83;;
1320;SDS011;653;51.480;11.992;2023-04-03T13:52:28;3.47;;;2.97;;
1320;SDS011;653;51.480;11.992;2023-04-03T13:54:59;4.83;;;2.80;;
1320;SDS011;653;51.480;11.992;2023-04-03T13:57:27;5.73;;;3.40;;
1320;SDS011;653;51.480;11.992;2023-04-03T13:59:54;3.50;;;2.57;;
1320;SDS011;653;51.480;11.992;2023-04-03T14:02:32;4.07;;;3.00;;
1320;SDS011;653;51.480;11.992;2023-04-03T14:05:00;6.20;;;3.20;;
1320;SDS011;653;51.480;11.992;2023-04-03T14:07:30;3.80;;;3.07;;
1320;SDS011;653;51.480;11.992;2023-04-03T14:09:57;7.73;;;3.40;;
1320;SDS011;653;51.480;11.992;2023-04-03T14:12:36;3.10;;;2.80;;
1320;SDS011;653;51.480;11.992;2023-04-03T14:15:28;3.97;;;3.30;;
1320;SDS011;653;51.480;11.992;2023-04-03T14:17:58;4.27;;;2.90;;
1320;SDS011;653;51.480;11.992;2023-04-03T14:20:25;4.07;;;3.67;;
1320;SDS011;653;51.480;11.992;2023-04-03T14:22:53;5.67;;;3.37;;
1320;SDS011;653;51.480;11.992;2023-04-03T14:25:21;7.10;;;4.10;;
1320;SDS011;653;51.480;11.992;2023-04-03T14:27:51;4.37;;;3.40;;
1320;SDS011;653;51.480;11.992;2023-04-03T14:30:21;5.73;;;3.50;;
1320;SDS011;653;51.480;11.992;2023-04-03T14:32:50;3.30;;;3.00;;
1320;SDS011;653;51.480;11.992;2023-04-03T14:35:17;5.73;;;3.50;;
1320;SDS011;653;51.480;11.992;2023-04-03T14:37:45;7.07;;;3.20;;
1320;SDS011;653;51.480;11.992;2023-04-03T14:40:17;5.63;;;3.67;;
1320;SDS011;653;51.480;11.992;2023-04-03T14:42:46;8.57;;;4.37;;
1320;SDS011;653;51.480;11.992;2023-04-03T14:45:15;6.10;;;3.23;;
1320;SDS011;653;51.480;11.992;2023-04-03T14:47:46;3.40;;;3.10;;
1320;SDS011;653;51.480;11.992;2023-04-03T14:50:15;4.23;;;3.03;;
1320;SDS011;653;51.480;11.992;2023-04-03T14:53:06;5.90;;;4.50;;
1320;SDS011;653;51.480;11.992;2023-04-03T14:55:33;5.27;;;4.27;;
1320;SDS011;653;51.480;11.992;2023-04-03T14:57:59;5.70;;;4.10;;
1320;SDS011;653;51.480;11.992;2023-04-03T15:00:27;4.63;;;3.50;;
1320;SDS011;653;51.480;11.992;2023-04-03T15:02:53;5.07;;;3.93;;
1320;SDS011;653;51.480;11.992;2023-04-03T15:05:19;4.77;;;3.17;;
1320;SDS011;653;51.480;11.992;2023-04-03T15:07:49;4.10;;;3.10;;
1320;SDS011;653;51.480;11.992;2023-04-03T15:10:23;3.40;;;3.10;;
1320;SDS011;653;51.480;11.992;2023-04-03T15:12:52;6.03;;;4.13;;
1320;SDS011;653;51.480;11.992;2023-04-03T15:15:19;3.33;;;3.00;;
1320;SDS011;653;51.480;11.992;2023-04-03T15:17:48;6.47;;;3.97;;
1320;SDS011;653;51.480;11.992;2023-04-03T15:20:20;7.03;;;3.13;;
1320;SDS011;653;51.480;11.992;2023-04-03T15:22:47;7.77;;;4.10;;
1320;SDS011;653;51.480;11.992;2023-04-03T15:25:14;2.83;;;2.63;;
1320;SDS011;653;51.480;11.992;2023-04-03T15:27:41;4.67;;;3.97;;
1320;SDS011;653;51.480;11.992;2023-04-03T15:30:08;4.97;;;3.00;;
1320;SDS011;653;51.480;11.992;2023-04-03T15:32:40;5.30;;;3.10;;
1320;SDS011;653;51.480;11.992;2023-04-03T15:35:07;5.10;;;3.10;;
1320;SDS011;653;51.480;11.992;2023-04-03T15:37:33;3.63;;;3.30;;
1320;SDS011;653;51.480;11.992;2023-04-03T15:40:00;4.00;;;3.30;;
1320;SDS011;653;51.480;11.992;2023-04-03T15:42:30;6.80;;;2.73;;
1320;SDS011;653;51.480;11.992;2023-04-03T15:44:56;4.60;;;2.97;;
1320;SDS011;653;51.480;11.992;2023-04-03T15:47:23;3.60;;;3.30;;
1320;SDS011;653;51.480;11.992;2023-04-03T15:49:51;3.30;;;2.70;;
1320;SDS011;653;51.480;11.992;2023-04-03T15:52:17;4.80;;;3.23;;
1320;SDS011;653;51.480;11.992;2023-04-03T15:54:44;9.43;;;3.30;;
1320;SDS011;653;51.480;11.992;2023-04-03T15:57:11;3.40;;;3.10;;
1320;SDS011;653;51.480;11.992;2023-04-03T15:59:38;4.20;;;2.97;;
1320;SDS011;653;51.480;11.992;2023-04-03T16:02:05;4.80;;;2.90;;
1320;SDS011;653;51.480;11.992;2023-04-03T16:04:32;3.83;;;3.43;;
1320;SDS011;653;51.480;11.992;2023-04-03T16:07:02;5.30;;;3.20;;
1320;SDS011;653;51.480;11.992;2023-04-03T16:09:30;4.37;;;3.10;;
1320;SDS011;653;51.480;11.992;2023-04-03T16:11:58;3.80;;;3.50;;
1320;SDS011;653;51.480;11.992;2023-04-03T16:14:25;4.60;;;2.80;;
1320;SDS011;653;51.480;11.992;2023-04-03T16:16:52;3.30;;;3.00;;
1320;SDS011;653;51.480;11.992;2023-04-03T16:19:19;3.63;;;2.90;;
1320;SDS011;653;51.480;11.992;2023-04-03T16:21:46;4.30;;;3.60;;
1320;SDS011;653;51.480;11.992;2023-04-03T16:24:13;3.97;;;3.57;;
1320;SDS011;653;51.480;11.992;2023-04-03T16:26:39;6.93;;;3.80;;
1320;SDS011;653;51.480;11.992;2023-04-03T16:29:06;5.03;;;3.47;;
1320;SDS011;653;51.480;11.992;2023-04-03T16:31:33;8.57;;;3.90;;
1320;SDS011;653;51.480;11.992;2023-04-03T16:34:00;3.93;;;3.40;;
1320;SDS011;653;51.480;11.992;2023-04-03T16:36:26;3.93;;;3.43;;
1320;SDS011;653;51.480;11.992;2023-04-03T16:38:52;7.00;;;3.37;;
1320;SDS011;653;51.480;11.992;2023-04-03T16:41:19;3.17;;;2.77;;
1320;SDS011;653;51.480;11.992;2023-04-03T16:43:45;3.37;;;3.07;;
1320;SDS011;653;51.480;11.992;2023-04-03T16:46:12;4.20;;;3.10;;
1320;SDS011;653;51.480;11.992;2023-04-03T16:48:38;5.67;;;3.20;;